Data for 11/15/2016

Time Sea-Level Adjusted Pressure Absolute Pressure Temperature Relative Humidity Dew Point   
(mb) (inHg) (mb) (inHg) (C) (F) (%) (C) (F)
00:05 1019 30.09 848 25.04 11.9 53.5 45 0.5 32.8
00:10 1019 30.09 848 25.04 11.9 53.3 46 0.6 33.1
00:15 1019 30.09 848 25.04 11.7 53.1 45 0.1 32.2
00:20 1019 30.09 848 25.04 11.8 53.3 45 0.3 32.6
00:25 1019 30.09 848 25.04 11.8 53.2 44 -0.1 31.9
00:30 1019 30.09 848 25.04 11.9 53.4 44 0 32
00:35 1019 30.09 848 25.04 11.8 53.2 44 0.1 32.1
00:40 1019 30.09 848 25.04 11.7 53.1 43 -0.5 31.2
00:45 1019 30.09 848 25.04 11.8 53.3 42 -0.6 30.9
00:50 1019 30.09 848 25.04 11.8 53.3 42 -0.5 31.1
00:55 1019 30.09 848 25.04 11.7 53.1 43 -0.5 31.1
01:00 1018 30.06 848 25.04 11.7 53.1 42 -0.6 30.8
01:05 1019 30.09 848 25.04 11.8 53.3 42 -0.7 30.7
01:10 1018 30.06 848 25.04 11.8 53.2 43 -0.3 31.4
01:15 1018 30.06 848 25.04 11.7 53.1 42 -0.6 30.9
01:20 1018 30.06 848 25.04 11.6 53 44 -0.3 31.5
01:25 1018 30.06 848 25.04 11.5 52.6 44 -0.3 31.5
01:30 1018 30.06 848 25.04 11.5 52.7 44 -0.4 31.3
01:35 1018 30.06 848 25.04 11.5 52.6 44 -0.3 31.4
01:40 1018 30.06 847 25.01 11.5 52.8 43 -0.6 30.9
01:45 1018 30.06 847 25.01 11.6 52.9 43 -0.6 30.9
01:50 1019 30.09 848 25.04 11.5 52.8 45 0.2 32.3
01:55 1018 30.06 848 25.04 11.3 52.4 46 0.1 32.1
02:00 1018 30.06 848 25.04 11.3 52.4 44 -0.5 31.2
02:05 1019 30.09 848 25.04 11.6 52.8 45 -0 31.9
02:10 1019 30.09 848 25.04 11.3 52.4 49 1.1 34
02:15 1019 30.09 848 25.04 10.9 51.5 51 1.1 34.1
02:20 1019 30.09 848 25.04 10.6 51 54 1.8 35.2
02:25 1019 30.09 848 25.04 10.5 50.9 53 1.3 34.3
02:30 1019 30.09 848 25.04 10.6 51 56 2.2 35.9
02:35 1019 30.09 848 25.04 10.3 50.6 59 2.6 36.7
02:40 1019 30.09 848 25.04 10.2 50.3 59 2.6 36.7
02:45 1019 30.09 848 25.04 9.8 49.6 61 2.7 36.8
02:50 1019 30.09 848 25.04 9.5 49.1 61 2.3 36.2
02:55 1019 30.09 848 25.04 9.5 49.1 64 3.1 37.5
03:00 1019 30.09 848 25.04 9.2 48.5 68 3.6 38.4
03:05 1019 30.09 848 25.04 8.8 47.9 70 3.6 38.5
03:10 1019 30.09 848 25.04 8.7 47.6 71 3.7 38.6
03:15 1019 30.09 848 25.04 8.5 47.2 74 4.1 39.3
03:20 1019 30.09 848 25.04 8.1 46.6 75 3.9 39
03:25 1019 30.09 848 25.04 8 46.5 74 3.6 38.6
03:30 1019 30.09 848 25.04 8.1 46.5 73 3.5 38.3
03:35 1019 30.09 848 25.04 8.1 46.5 72 3.3 37.9
03:40 1019 30.09 848 25.04 8.3 46.9 69 2.9 37.2
03:45 1019 30.09 848 25.04 8.3 46.9 79 4.8 40.7
03:50 1019 30.09 848 25.04 7.4 45.3 81 4.4 39.9
03:55 1018 30.06 848 25.04 7.2 44.9 82 4.4 39.9
04:00 1018 30.06 848 25.04 7.2 44.9 83 4.4 39.9
04:05 1018 30.06 847 25.01 7.1 44.8 82 4.3 39.8
04:10 1018 30.06 847 25.01 7.2 44.9 83 4.4 40
04:15 1018 30.06 847 25.01 7 44.6 85 4.7 40.4
04:20 1018 30.06 847 25.01 6.7 44.1 87 4.6 40.3
04:25 1018 30.06 847 25.01 6.6 43.8 88 4.7 40.4
04:30 1018 30.06 847 25.01 6.5 43.8 87 4.6 40.3
04:35 1018 30.06 847 25.01 6.6 43.9 87 4.6 40.3
04:40 1018 30.06 847 25.01 6.6 43.9 87 4.6 40.3
04:45 1018 30.06 847 25.01 6.6 43.9 86 4.5 40.1
04:50 1018 30.06 847 25.01 6.7 44 86 4.4 40
04:55 1018 30.06 847 25.01 6.7 44.1 85 4.3 39.7
05:00 1018 30.06 847 25.01 6.9 44.4 83 4.1 39.4
05:05 1017 30.03 847 25.01 7 44.5 82 4 39.3
05:10 1017 30.03 847 25.01 7 44.7 81 4 39.3
05:15 1017 30.03 847 25.01 7 44.7 81 4 39.2
05:20 1017 30.03 847 25.01 7.1 44.7 81 4 39.1
05:25 1017 30.03 847 25.01 7 44.6 81 4 39.2
05:30 1017 30.03 847 25.01 7 44.7 80 3.8 38.9
05:35 1017 30.03 847 25.01 7.2 44.9 78 3.6 38.5
05:40 1017 30.03 846 24.98 7.3 45.1 78 3.7 38.7
05:45 1017 30.03 846 24.98 7.3 45.1 78 3.7 38.7
05:50 1017 30.03 846 24.98 7.2 45 78 3.7 38.6
05:55 1017 30.03 846 24.98 7.3 45.1 79 3.8 38.8
06:00 1017 30.03 846 24.98 7.2 44.9 78 3.7 38.6
06:05 1017 30.03 846 24.98 7.2 44.9 79 3.7 38.7
06:10 1017 30.03 846 24.98 7.1 44.7 80 3.9 39
06:15 1017 30.03 846 24.98 6.9 44.4 80 3.7 38.7
06:20 1017 30.03 846 24.98 7 44.6 79 3.7 38.6
06:25 1017 30.03 846 24.98 7 44.7 79 3.6 38.5
06:30 1017 30.03 846 24.98 7.1 44.8 78 3.6 38.5
06:35 1017 30.03 846 24.98 7.1 44.8 79 3.7 38.6
06:40 1017 30.03 846 24.98 7.2 44.9 77 3.4 38.1
06:45 1017 30.03 846 24.98 7.4 45.3 76 3.6 38.4
06:50 1017 30.03 846 24.98 7.3 45.2 77 3.5 38.4
06:55 1017 30.03 846 24.98 7.4 45.4 76 3.5 38.2
07:00 1017 30.03 846 24.98 7.4 45.3 76 3.5 38.4
07:05 1017 30.03 846 24.98 7.3 45.2 77 3.6 38.5
07:10 1017 30.03 846 24.98 7.2 45 77 3.5 38.3
07:15 1016 30 846 24.98 7.3 45.1 77 3.5 38.2
07:20 1016 30 846 24.98 7.3 45.2 76 3.4 38.2
07:25 1016 30 845 24.95 7.4 45.3 76 3.5 38.3
07:30 1016 30 845 24.95 7.3 45.1 77 3.6 38.5
07:35 1016 30 845 24.95 7.2 44.9 76 3.3 37.9
07:40 1016 30 845 24.95 7.2 45 76 3.4 38.1
07:45 1016 30 845 24.95 7.2 44.9 76 3.2 37.8
07:50 1016 30 846 24.98 7.2 45 76 3.3 38
07:55 1016 30 845 24.95 7.4 45.3 75 3.3 37.9
08:00 1016 30 846 24.98 7.3 45.2 75 3.2 37.8
08:05 1016 30 846 24.98 7.6 45.6 74 3.3 37.9
08:10 1016 30 845 24.95 7.5 45.5 74 3.2 37.7
08:15 1016 30 845 24.95 7.7 45.8 74 3.3 37.9
08:20 1016 30 845 24.95 7.6 45.8 73 3.2 37.7
08:25 1016 30 845 24.95 7.7 45.9 73 3.2 37.7
08:30 1016 30 845 24.95 7.9 46.1 72 3.2 37.7
08:35 1016 30 845 24.95 8 46.4 70 2.9 37.3
08:40 1016 30 845 24.95 8.2 46.8 70 3 37.5
08:45 1016 30 845 24.95 8.5 47.3 69 3.1 37.6
08:50 1016 30 845 24.95 8.8 47.8 68 3.2 37.7
08:55 1016 30 845 24.95 9 48.3 66 3.1 37.7
09:00 1016 30 845 24.95 9.2 48.6 66 3.3 37.9
09:05 1016 30 845 24.95 9.6 49.2 65 3.3 37.9
09:10 1016 30 845 24.95 9.8 49.7 64 3.4 38.2
09:15 1016 30 845 24.95 10.2 50.3 62 3.3 37.9
09:20 1016 30 845 24.95 10.7 51.2 60 3.2 37.8
09:25 1016 30 845 24.95 11.1 52 60 3.7 38.6
09:30 1016 30 845 24.95 11.1 52 60 3.6 38.5
09:35 1016 30 845 24.95 11.2 52.2 61 4 39.1
09:40 1016 30 845 24.95 11.7 53 60 4.1 39.4
09:45 1016 30 845 24.95 11.6 52.9 62 4.6 40.3
09:50 1016 30 845 24.95 11.7 53.1 58 3.8 38.8
09:55 1015 29.97 845 24.95 12.1 53.8 57 4 39.1
10:00 1015 29.97 845 24.95 12 53.6 58 4.1 39.4
10:05 1015 29.97 845 24.95 11.8 53.2 59 4.1 39.4
10:10 1015 29.97 845 24.95 11.8 53.2 58 3.9 39
10:15 1015 29.97 844 24.92 11.9 53.3 57 3.6 38.4
10:20 1015 29.97 844 24.92 11.8 53.2 58 3.8 38.9
10:25 1015 29.97 844 24.92 11.8 53.2 58 3.9 39.1
10:30 1015 29.97 845 24.95 11.8 53.3 58 3.8 38.9
10:35 1015 29.97 844 24.92 11.6 52.9 59 3.9 39
10:40 1015 29.97 844 24.92 11.6 52.8 59 3.9 39
10:45 1015 29.97 844 24.92 11.6 52.8 60 4.1 39.4
10:50 1015 29.97 844 24.92 11.6 52.9 59 3.9 39
10:55 1015 29.97 844 24.92 11.7 53 60 4.2 39.5
11:00 1015 29.97 844 24.92 11.7 53.1 59 4.1 39.3
11:05 1015 29.97 844 24.92 11.7 53.1 59 4 39.1
11:10 1015 29.97 844 24.92 11.7 53.1 58 3.8 38.9
11:15 1015 29.97 844 24.92 11.8 53.3 57 3.7 38.6
11:20 1014 29.94 844 24.92 11.9 53.4 55 3.2 37.7
11:25 1014 29.94 844 24.92 11.9 53.4 55 3.2 37.8
11:30 1014 29.94 844 24.92 11.8 53.3 55 3.2 37.7
11:35 1014 29.94 843 24.89 11.8 53.2 54 2.8 37
11:40 1014 29.94 843 24.89 11.7 53.1 56 3.3 38
11:45 1014 29.94 843 24.89 11.5 52.8 57 3.5 38.2
11:50 1014 29.94 843 24.89 11.5 52.6 56 3.1 37.7
11:55 1014 29.94 843 24.89 11.4 52.6 58 3.4 38.1
12:00 1014 29.94 843 24.89 11.3 52.4 57 3.2 37.8
12:05 1014 29.94 843 24.89 11.3 52.3 58 3.3 37.9
12:10 1014 29.94 843 24.89 11.2 52.1 56 2.8 37.1
12:15 1014 29.94 843 24.89 11.1 52 55 2.6 36.7
12:20 1014 29.94 843 24.89 11.2 52.2 56 2.8 37
12:25 1014 29.94 843 24.89 11.2 52.2 57 3.2 37.7
12:30 1014 29.94 843 24.89 11 51.8 57 2.9 37.2
12:35 1014 29.94 843 24.89 10.8 51.5 56 2.3 36.2
12:40 1014 29.94 843 24.89 10.9 51.7 61 3.6 38.5
12:45 1014 29.94 843 24.89 10.8 51.5 62 3.9 39
12:50 1014 29.94 843 24.89 10.9 51.5 62 4 39.1
12:55 1014 29.94 843 24.89 10.8 51.5 64 4.4 39.9
13:00 1013 29.91 843 24.89 10.7 51.3 67 4.8 40.7
13:05 1013 29.91 843 24.89 10.6 51 68 5 41
13:10 1013 29.91 843 24.89 10.5 50.8 65 4.1 39.4
13:15 1013 29.91 842 24.86 10.3 50.5 66 4.2 39.6
13:20 1013 29.91 842 24.86 10.2 50.3 66 4.2 39.5
13:25 1013 29.91 842 24.86 10 49.9 65 3.8 38.8
13:30 1013 29.91 842 24.86 9.9 49.8 65 3.7 38.6
13:35 1013 29.91 842 24.86 10 49.9 65 3.8 38.8
13:40 1013 29.91 842 24.86 10.1 50.3 64 3.6 38.5
13:45 1013 29.91 842 24.86 10.2 50.4 63 3.5 38.3
13:50 1013 29.91 842 24.86 10.4 50.7 63 3.7 38.7
13:55 1013 29.91 842 24.86 10.4 50.7 64 3.9 38.9
14:00 1013 29.91 842 24.86 10.4 50.7 65 4.2 39.6
14:05 1013 29.91 842 24.86 10.2 50.3 66 4.2 39.5
14:10 1013 29.91 842 24.86 9.9 49.8 68 4.4 39.9
14:15 1013 29.91 842 24.86 9.7 49.5 69 4.3 39.7
14:20 1013 29.91 842 24.86 9.7 49.4 69 4.3 39.7
14:25 1013 29.91 842 24.86 9.7 49.5 70 4.5 40.1
14:30 1013 29.91 842 24.86 9.7 49.4 69 4.3 39.7
14:35 1013 29.91 842 24.86 9.7 49.4 69 4.3 39.8
14:40 1013 29.91 842 24.86 9.6 49.4 69 4.4 39.8
14:45 1013 29.91 842 24.86 9.7 49.4 69 4.3 39.7
14:50 1013 29.91 842 24.86 9.6 49.3 70 4.3 39.8
14:55 1013 29.91 842 24.86 9.4 48.9 73 4.8 40.6
15:00 1013 29.91 842 24.86 9 48.2 75 4.9 40.8
15:05 1013 29.91 842 24.86 8.7 47.7 77 4.9 40.8
15:10 1013 29.91 842 24.86 8.6 47.5 78 4.9 40.8
15:15 1013 29.91 842 24.86 8.6 47.5 78 5 41
15:20 1013 29.91 842 24.86 8.6 47.5 78 5 41.1
15:25 1013 29.91 842 24.86 8.6 47.4 77 4.8 40.7
15:30 1013 29.91 842 24.86 8.5 47.3 79 5 41.1
15:35 1013 29.91 842 24.86 8.4 47.1 80 5.2 41.3
15:40 1013 29.91 842 24.86 8.3 46.9 81 5.2 41.4
15:45 1013 29.91 842 24.86 8.1 46.6 82 5.2 41.4
15:50 1013 29.91 842 24.86 8 46.4 83 5.3 41.5
15:55 1013 29.91 843 24.89 7.8 46 84 5.3 41.6
16:00 1013 29.91 843 24.89 7.8 46 85 5.4 41.8
16:05 1013 29.91 843 24.89 7.7 45.8 86 5.4 41.7
16:10 1013 29.91 843 24.89 7.6 45.7 87 5.5 41.9
16:15 1013 29.91 842 24.86 7.5 45.6 87 5.6 42.1
16:20 1013 29.91 842 24.86 7.5 45.6 87 5.6 42.1
16:25 1013 29.91 843 24.89 7.5 45.5 88 5.6 42
16:30 1013 29.91 843 24.89 7.4 45.4 88 5.6 42.1
16:35 1014 29.94 843 24.89 7.5 45.4 88 5.7 42.2
16:40 1014 29.94 843 24.89 7.4 45.4 89 5.7 42.2
16:45 1014 29.94 843 24.89 7.4 45.3 89 5.7 42.2
16:50 1013 29.91 843 24.89 7.3 45.1 89 5.6 42.1
16:55 1014 29.94 843 24.89 7.2 45 89 5.6 42.1
17:00 1014 29.94 843 24.89 7.2 44.9 89 5.5 41.9
17:05 1014 29.94 843 24.89 7.1 44.8 89 5.4 41.8
17:10 1014 29.94 843 24.89 7 44.5 89 5.2 41.4
17:15 1014 29.94 843 24.89 6.9 44.5 88 5 41.1
17:20 1014 29.94 843 24.89 6.8 44.2 88 4.9 40.8
17:25 1014 29.94 843 24.89 6.5 43.8 89 4.9 40.8
17:30 1014 29.94 843 24.89 6.6 43.8 89 4.9 40.8
17:35 1014 29.94 843 24.89 6.5 43.8 89 4.9 40.7
17:40 1014 29.94 843 24.89 6.4 43.5 87 4.3 39.8
17:45 1014 29.94 843 24.89 6 42.8 87 4 39.3
17:50 1014 29.94 843 24.89 5.6 42.1 88 3.8 38.8
17:55 1014 29.94 843 24.89 5.4 41.8 89 3.7 38.7
18:00 1014 29.94 843 24.89 5.5 41.9 89 3.8 38.9
18:05 1014 29.94 843 24.89 5.4 41.8 89 3.8 38.8
18:10 1013 29.91 842 24.86 5.4 41.8 89 3.8 38.9
18:15 1013 29.91 842 24.86 5.3 41.6 90 3.8 38.9
18:20 1013 29.91 842 24.86 5.2 41.4 91 3.8 38.9
18:25 1012 29.88 841 24.83 5.3 41.5 91 3.9 39
18:30 1012 29.88 841 24.83 5.5 41.9 89 3.8 38.8
18:35 1012 29.88 841 24.83 5.9 42.6 86 3.7 38.6
18:40 1011 29.85 841 24.83 6.1 43 84 3.7 38.6
18:45 1011 29.85 841 24.83 6.4 43.5 80 3.2 37.7
18:50 1011 29.85 841 24.83 6.8 44.2 73 2.4 36.3
18:55 1011 29.85 841 24.83 7.9 46.2 66 1.9 35.4
19:00 1011 29.85 841 24.83 8.5 47.2 66 2.4 36.3
19:05 1011 29.85 841 24.83 8.6 47.5 66 2.6 36.8
19:10 1012 29.88 841 24.83 8.6 47.4 67 2.7 36.9
19:15 1012 29.88 841 24.83 8.5 47.4 65 2.4 36.4
19:20 1012 29.88 841 24.83 8.7 47.7 62 1.8 35.2
19:25 1012 29.88 841 24.83 8.9 48.1 62 2 35.7
19:30 1012 29.88 841 24.83 8.8 47.9 63 2.3 36.1
19:35 1011 29.85 840 24.81 8.7 47.6 64 2.2 35.9
19:40 1011 29.85 840 24.81 8.5 47.4 66 2.6 36.7
19:45 1011 29.85 840 24.81 8.3 47 67 2.6 36.6
19:50 1010 29.83 839 24.78 8.4 47 65 2.3 36.1
19:55 1010 29.83 839 24.78 8.5 47.2 67 2.6 36.8
20:00 1010 29.83 839 24.78 9 48.2 61 1.9 35.5
20:05 1010 29.83 839 24.78 9.3 48.8 55 0.7 33.3
20:10 1010 29.83 839 24.78 10.3 50.5 54 1.4 34.4
20:15 1010 29.83 839 24.78 10.1 50.1 59 2.5 36.5
20:20 1009 29.8 839 24.78 9.6 49.2 59 2.1 35.8
20:25 1009 29.8 838 24.75 9.4 48.8 61 2.2 35.9
20:30 1009 29.8 838 24.75 9.4 48.8 60 2 35.5
20:35 1009 29.8 838 24.75 9.8 49.6 52 0.4 32.7
20:40 1009 29.8 838 24.75 10.3 50.5 56 1.9 35.4
20:45 1009 29.8 838 24.75 9.6 49.3 61 2.4 36.3
20:50 1009 29.8 838 24.75 9.1 48.4 61 2.1 35.7
20:55 1009 29.8 838 24.75 9 48.2 62 2.1 35.8
21:00 1009 29.8 838 24.75 9 48.1 62 2 35.7
21:05 1009 29.8 838 24.75 9 48.1 61 1.9 35.4
21:10 1009 29.8 838 24.75 8.9 48.1 62 2.2 35.9
21:15 1009 29.8 838 24.75 8.9 47.9 61 1.8 35.2
21:20 1009 29.8 838 24.75 9 48.1 61 1.9 35.4
21:25 1009 29.8 838 24.75 9.3 48.7 56 0.9 33.7
21:30 1009 29.8 838 24.75 9.8 49.6 56 1.5 34.7
21:35 1009 29.8 838 24.75 9.8 49.7 54 1.1 33.9
21:40 1009 29.8 838 24.75 10 50 54 1.2 34.2
21:45 1009 29.8 838 24.75 10.1 50.1 54 1.2 34.1
21:50 1009 29.8 838 24.75 10.2 50.3 51 0.5 32.9
21:55 1009 29.8 838 24.75 10.5 50.9 50 0.6 33.1
22:00 1009 29.8 838 24.75 10.4 50.8 52 1.1 34
22:05 1009 29.8 838 24.75 10.1 50.2 54 1.3 34.3
22:10 1009 29.8 838 24.75 9.9 49.9 54 1.1 34
22:15 1009 29.8 838 24.75 9.8 49.7 55 1.2 34.2
22:20 1009 29.8 838 24.75 9.8 49.6 55 1.1 34
22:25 1009 29.8 838 24.75 9.7 49.5 54 1 33.9
22:30 1008 29.77 838 24.75 9.7 49.5 57 1.6 34.8
22:35 1009 29.8 838 24.75 9.6 49.2 58 1.7 35
22:40 1008 29.77 838 24.75 9.5 49.1 55 1 33.8
22:45 1008 29.77 838 24.75 9.7 49.5 56 1.4 34.4
22:50 1008 29.77 838 24.75 9.7 49.4 56 1.3 34.3
22:55 1008 29.77 838 24.75 9.7 49.4 54 0.8 33.5
23:00 1009 29.8 838 24.75 9.8 49.6 57 1.6 34.9
23:05 1009 29.8 838 24.75 9.3 48.8 60 2 35.6
23:10 1009 29.8 838 24.75 8.8 47.9 63 2.2 36
23:15 1009 29.8 838 24.75 8.4 47.1 67 2.6 36.6
23:20 1009 29.8 838 24.75 7.9 46.3 69 2.6 36.6
23:25 1009 29.8 838 24.75 7.6 45.6 71 2.7 36.8
23:30 1009 29.8 838 24.75 7.1 44.8 74 2.8 37.1
23:35 1009 29.8 838 24.75 6.5 43.8 77 2.8 37.1
23:40 1009 29.8 838 24.75 6.2 43.1 80 3.1 37.5
23:45 1009 29.8 839 24.78 5.7 42.3 83 3 37.3
23:50 1010 29.83 839 24.78 5.6 42 83 2.8 37.1
23:55 1010 29.83 839 24.78 5.6 42.1 81 2.6 36.7
24:00 1010 29.83 839 24.78 5.7 42.2 80 2.5 36.4